sensor_id;sensor_type;location;lat;lon;timestamp;temperature;humidity
796;DHT22;381;48.770;9.188;2022-09-01T00:01:12;18.60;99.90
796;DHT22;381;48.770;9.188;2022-09-01T00:06:22;18.60;99.90
796;DHT22;381;48.770;9.188;2022-09-01T00:11:27;18.50;99.90
796;DHT22;381;48.770;9.188;2022-09-01T00:16:30;18.50;99.90
796;DHT22;381;48.770;9.188;2022-09-01T00:21:34;18.50;99.90
796;DHT22;381;48.770;9.188;2022-09-01T00:26:38;18.40;99.90
796;DHT22;381;48.770;9.188;2022-09-01T00:31:41;18.40;99.90
796;DHT22;381;48.770;9.188;2022-09-01T00:36:43;18.30;99.90
796;DHT22;381;48.770;9.188;2022-09-01T00:41:46;18.30;99.90
796;DHT22;381;48.770;9.188;2022-09-01T00:46:52;18.30;99.90
796;DHT22;381;48.770;9.188;2022-09-01T00:51:58;18.20;99.90
796;DHT22;381;48.770;9.188;2022-09-01T00:57:03;18.30;99.90
796;DHT22;381;48.770;9.188;2022-09-01T01:02:06;18.20;99.90
796;DHT22;381;48.770;9.188;2022-09-01T01:07:10;18.20;99.90
796;DHT22;381;48.770;9.188;2022-09-01T01:12:14;18.20;99.90
796;DHT22;381;48.770;9.188;2022-09-01T01:17:18;18.10;99.90
796;DHT22;381;48.770;9.188;2022-09-01T01:22:28;18.10;99.90
796;DHT22;381;48.770;9.188;2022-09-01T01:27:49;18.00;99.90
796;DHT22;381;48.770;9.188;2022-09-01T01:32:52;18.00;99.90
796;DHT22;381;48.770;9.188;2022-09-01T01:37:55;18.00;99.90
796;DHT22;381;48.770;9.188;2022-09-01T01:42:59;18.00;99.90
796;DHT22;381;48.770;9.188;2022-09-01T01:48:02;17.90;99.90
796;DHT22;381;48.770;9.188;2022-09-01T01:53:08;17.90;99.90
796;DHT22;381;48.770;9.188;2022-09-01T01:58:13;17.90;99.90
796;DHT22;381;48.770;9.188;2022-09-01T02:03:18;17.90;99.90
796;DHT22;381;48.770;9.188;2022-09-01T02:08:22;17.80;99.90
796;DHT22;381;48.770;9.188;2022-09-01T02:13:27;17.80;99.90
796;DHT22;381;48.770;9.188;2022-09-01T02:18:34;17.80;99.90
796;DHT22;381;48.770;9.188;2022-09-01T02:23:37;17.70;99.90
796;DHT22;381;48.770;9.188;2022-09-01T02:28:42;17.70;99.90
796;DHT22;381;48.770;9.188;2022-09-01T02:33:45;17.70;99.90
796;DHT22;381;48.770;9.188;2022-09-01T02:38:48;17.70;99.90
796;DHT22;381;48.770;9.188;2022-09-01T02:43:52;17.60;99.90
796;DHT22;381;48.770;9.188;2022-09-01T02:48:54;17.70;99.90
796;DHT22;381;48.770;9.188;2022-09-01T02:53:57;17.70;99.90
796;DHT22;381;48.770;9.188;2022-09-01T02:59:02;17.70;99.90
796;DHT22;381;48.770;9.188;2022-09-01T03:04:06;17.70;99.90
796;DHT22;381;48.770;9.188;2022-09-01T03:09:11;17.70;99.90
796;DHT22;381;48.770;9.188;2022-09-01T03:14:16;17.70;99.90
796;DHT22;381;48.770;9.188;2022-09-01T03:19:19;17.70;99.90
796;DHT22;381;48.770;9.188;2022-09-01T03:24:21;17.70;99.90
796;DHT22;381;48.770;9.188;2022-09-01T03:29:27;17.60;99.90
796;DHT22;381;48.770;9.188;2022-09-01T03:34:29;17.60;99.90
796;DHT22;381;48.770;9.188;2022-09-01T03:39:34;17.50;99.90
796;DHT22;381;48.770;9.188;2022-09-01T03:44:37;17.50;99.90
796;DHT22;381;48.770;9.188;2022-09-01T03:49:41;17.50;99.90
796;DHT22;381;48.770;9.188;2022-09-01T03:54:45;17.50;99.90
796;DHT22;381;48.770;9.188;2022-09-01T03:59:49;17.40;99.90
796;DHT22;381;48.770;9.188;2022-09-01T04:04:51;17.40;99.90
796;DHT22;381;48.770;9.188;2022-09-01T04:09:54;17.40;99.90
796;DHT22;381;48.770;9.188;2022-09-01T04:14:59;17.40;99.90
796;DHT22;381;48.770;9.188;2022-09-01T04:20:01;17.40;99.90
796;DHT22;381;48.770;9.188;2022-09-01T04:25:08;17.40;99.90
796;DHT22;381;48.770;9.188;2022-09-01T04:30:12;17.30;99.90
796;DHT22;381;48.770;9.188;2022-09-01T04:35:19;17.30;99.90
796;DHT22;381;48.770;9.188;2022-09-01T04:40:27;17.20;99.90
796;DHT22;381;48.770;9.188;2022-09-01T04:45:33;17.20;99.90
796;DHT22;381;48.770;9.188;2022-09-01T04:50:39;17.10;99.90
796;DHT22;381;48.770;9.188;2022-09-01T04:55:52;17.20;99.90
796;DHT22;381;48.770;9.188;2022-09-01T05:00:56;17.20;99.90
796;DHT22;381;48.770;9.188;2022-09-01T05:06:00;17.20;99.90
796;DHT22;381;48.770;9.188;2022-09-01T05:11:04;17.20;99.90
796;DHT22;381;48.770;9.188;2022-09-01T05:16:23;17.30;99.90
796;DHT22;381;48.770;9.188;2022-09-01T05:21:26;17.30;99.90
796;DHT22;381;48.770;9.188;2022-09-01T05:26:31;17.30;99.90
796;DHT22;381;48.770;9.188;2022-09-01T05:31:36;17.30;99.90
796;DHT22;381;48.770;9.188;2022-09-01T05:36:41;17.40;99.90
796;DHT22;381;48.770;9.188;2022-09-01T05:41:44;17.50;99.90
796;DHT22;381;48.770;9.188;2022-09-01T05:46:50;17.40;99.90
796;DHT22;381;48.770;9.188;2022-09-01T05:51:53;17.50;99.90
796;DHT22;381;48.770;9.188;2022-09-01T05:56:59;17.50;99.90
796;DHT22;381;48.770;9.188;2022-09-01T06:02:04;17.60;99.90
796;DHT22;381;48.770;9.188;2022-09-01T06:07:11;17.70;99.90
796;DHT22;381;48.770;9.188;2022-09-01T06:12:17;17.80;99.90
796;DHT22;381;48.770;9.188;2022-09-01T06:17:26;18.00;99.90
796;DHT22;381;48.770;9.188;2022-09-01T06:22:35;18.20;99.90
796;DHT22;381;48.770;9.188;2022-09-01T06:27:39;18.40;99.90
796;DHT22;381;48.770;9.188;2022-09-01T06:32:46;18.50;99.90
796;DHT22;381;48.770;9.188;2022-09-01T06:37:49;18.70;99.90
796;DHT22;381;48.770;9.188;2022-09-01T06:43:09;18.90;99.90
796;DHT22;381;48.770;9.188;2022-09-01T06:48:15;19.10;99.90
796;DHT22;381;48.770;9.188;2022-09-01T06:53:18;19.30;99.90
796;DHT22;381;48.770;9.188;2022-09-01T06:58:21;19.50;99.90
796;DHT22;381;48.770;9.188;2022-09-01T07:03:28;19.70;99.90
796;DHT22;381;48.770;9.188;2022-09-01T07:08:48;19.80;99.90
796;DHT22;381;48.770;9.188;2022-09-01T07:14:09;20.00;99.90
796;DHT22;381;48.770;9.188;2022-09-01T07:19:17;20.10;99.90
796;DHT22;381;48.770;9.188;2022-09-01T07:24:32;20.20;99.90
796;DHT22;381;48.770;9.188;2022-09-01T07:30:06;20.30;99.90
796;DHT22;381;48.770;9.188;2022-09-01T07:35:11;20.50;99.90
796;DHT22;381;48.770;9.188;2022-09-01T07:40:16;20.50;99.90
796;DHT22;381;48.770;9.188;2022-09-01T07:45:35;20.50;99.90
796;DHT22;381;48.770;9.188;2022-09-01T07:50:42;20.60;99.90
796;DHT22;381;48.770;9.188;2022-09-01T07:55:48;20.80;99.90
796;DHT22;381;48.770;9.188;2022-09-01T08:00:51;21.00;99.90
796;DHT22;381;48.770;9.188;2022-09-01T08:06:02;21.20;99.90
796;DHT22;381;48.770;9.188;2022-09-01T08:11:06;21.30;99.90
796;DHT22;381;48.770;9.188;2022-09-01T08:16:10;21.30;99.90
796;DHT22;381;48.770;9.188;2022-09-01T08:21:17;21.20;99.90
796;DHT22;381;48.770;9.188;2022-09-01T08:26:40;21.20;99.90
796;DHT22;381;48.770;9.188;2022-09-01T08:31:44;21.40;99.90
796;DHT22;381;48.770;9.188;2022-09-01T08:36:48;21.50;99.90
796;DHT22;381;48.770;9.188;2022-09-01T08:41:56;21.60;99.90
796;DHT22;381;48.770;9.188;2022-09-01T08:47:04;21.60;99.90
796;DHT22;381;48.770;9.188;2022-09-01T08:52:17;21.60;99.90
796;DHT22;381;48.770;9.188;2022-09-01T08:57:26;21.50;99.90
796;DHT22;381;48.770;9.188;2022-09-01T09:03:05;21.40;99.90
796;DHT22;381;48.770;9.188;2022-09-01T09:08:26;21.30;99.90
796;DHT22;381;48.770;9.188;2022-09-01T09:13:37;21.50;99.90
796;DHT22;381;48.770;9.188;2022-09-01T09:18:45;21.70;99.90
796;DHT22;381;48.770;9.188;2022-09-01T09:23:55;21.80;99.90
796;DHT22;381;48.770;9.188;2022-09-01T09:28:59;21.80;99.90
796;DHT22;381;48.770;9.188;2022-09-01T09:34:02;21.80;99.90
796;DHT22;381;48.770;9.188;2022-09-01T09:39:08;21.80;99.90
796;DHT22;381;48.770;9.188;2022-09-01T09:44:19;21.90;99.90
796;DHT22;381;48.770;9.188;2022-09-01T09:49:24;22.10;99.90
796;DHT22;381;48.770;9.188;2022-09-01T09:54:30;22.20;99.90
796;DHT22;381;48.770;9.188;2022-09-01T09:59:36;22.40;99.90
796;DHT22;381;48.770;9.188;2022-09-01T10:04:39;22.70;99.90
796;DHT22;381;48.770;9.188;2022-09-01T10:09:42;22.90;99.90
796;DHT22;381;48.770;9.188;2022-09-01T10:14:48;22.90;99.90
796;DHT22;381;48.770;9.188;2022-09-01T10:19:54;23.00;99.90
796;DHT22;381;48.770;9.188;2022-09-01T10:24:59;23.10;99.90
796;DHT22;381;48.770;9.188;2022-09-01T10:30:05;23.10;99.90
796;DHT22;381;48.770;9.188;2022-09-01T10:35:13;23.10;99.90
796;DHT22;381;48.770;9.188;2022-09-01T10:40:36;23.10;99.90
796;DHT22;381;48.770;9.188;2022-09-01T10:45:40;23.20;99.90
796;DHT22;381;48.770;9.188;2022-09-01T10:50:43;23.20;99.90
796;DHT22;381;48.770;9.188;2022-09-01T10:55:59;23.20;99.90
796;DHT22;381;48.770;9.188;2022-09-01T11:01:03;23.30;98.50
796;DHT22;381;48.770;9.188;2022-09-01T11:06:06;23.40;97.80
796;DHT22;381;48.770;9.188;2022-09-01T11:11:22;23.30;98.50
796;DHT22;381;48.770;9.188;2022-09-01T11:16:30;23.30;97.70
796;DHT22;381;48.770;9.188;2022-09-01T11:21:33;23.00;98.60
796;DHT22;381;48.770;9.188;2022-09-01T11:26:46;23.00;99.10
796;DHT22;381;48.770;9.188;2022-09-01T11:31:48;23.00;99.60
796;DHT22;381;48.770;9.188;2022-09-01T11:36:57;23.10;98.70
796;DHT22;381;48.770;9.188;2022-09-01T11:42:06;23.00;99.20
796;DHT22;381;48.770;9.188;2022-09-01T11:47:12;22.80;98.80
796;DHT22;381;48.770;9.188;2022-09-01T11:52:18;22.70;99.90
796;DHT22;381;48.770;9.188;2022-09-01T11:57:25;22.70;98.70
796;DHT22;381;48.770;9.188;2022-09-01T12:02:30;22.80;99.80
796;DHT22;381;48.770;9.188;2022-09-01T12:07:39;23.10;99.90
796;DHT22;381;48.770;9.188;2022-09-01T12:12:43;23.40;98.20
796;DHT22;381;48.770;9.188;2022-09-01T12:17:46;23.60;98.30
796;DHT22;381;48.770;9.188;2022-09-01T12:22:48;23.70;96.60
796;DHT22;381;48.770;9.188;2022-09-01T12:27:52;23.60;97.60
796;DHT22;381;48.770;9.188;2022-09-01T12:32:55;23.80;97.40
796;DHT22;381;48.770;9.188;2022-09-01T12:38:20;23.80;97.10
796;DHT22;381;48.770;9.188;2022-09-01T12:43:32;23.70;97.40
796;DHT22;381;48.770;9.188;2022-09-01T12:48:36;23.60;96.10
796;DHT22;381;48.770;9.188;2022-09-01T12:53:39;23.20;95.70
796;DHT22;381;48.770;9.188;2022-09-01T12:58:46;22.90;95.60
796;DHT22;381;48.770;9.188;2022-09-01T13:09:25;22.60;95.90
796;DHT22;381;48.770;9.188;2022-09-01T13:14:29;22.50;96.30
796;DHT22;381;48.770;9.188;2022-09-01T13:19:31;22.60;96.70
796;DHT22;381;48.770;9.188;2022-09-01T13:24:33;22.80;94.90
796;DHT22;381;48.770;9.188;2022-09-01T13:29:36;23.10;95.40
796;DHT22;381;48.770;9.188;2022-09-01T13:34:38;23.40;93.40
796;DHT22;381;48.770;9.188;2022-09-01T13:39:41;23.50;95.20
796;DHT22;381;48.770;9.188;2022-09-01T13:44:45;23.60;94.80
796;DHT22;381;48.770;9.188;2022-09-01T13:49:48;23.60;94.40
796;DHT22;381;48.770;9.188;2022-09-01T13:54:50;23.60;94.20
796;DHT22;381;48.770;9.188;2022-09-01T13:59:53;23.40;94.00
796;DHT22;381;48.770;9.188;2022-09-01T14:04:56;23.30;93.10
796;DHT22;381;48.770;9.188;2022-09-01T14:09:58;23.10;95.10
796;DHT22;381;48.770;9.188;2022-09-01T14:15:03;23.00;95.60
796;DHT22;381;48.770;9.188;2022-09-01T14:20:07;23.00;94.80
796;DHT22;381;48.770;9.188;2022-09-01T14:25:10;23.00;94.40
796;DHT22;381;48.770;9.188;2022-09-01T14:30:16;23.20;95.10
796;DHT22;381;48.770;9.188;2022-09-01T14:35:20;23.40;94.60
796;DHT22;381;48.770;9.188;2022-09-01T14:40:23;23.40;94.50
796;DHT22;381;48.770;9.188;2022-09-01T14:45:30;23.50;93.20
796;DHT22;381;48.770;9.188;2022-09-01T14:50:32;23.50;93.30
796;DHT22;381;48.770;9.188;2022-09-01T14:55:34;23.60;93.80
796;DHT22;381;48.770;9.188;2022-09-01T15:00:38;23.70;93.20
796;DHT22;381;48.770;9.188;2022-09-01T15:05:41;23.60;92.90
796;DHT22;381;48.770;9.188;2022-09-01T15:10:43;23.50;91.60
796;DHT22;381;48.770;9.188;2022-09-01T15:15:49;23.40;91.50
796;DHT22;381;48.770;9.188;2022-09-01T15:20:53;23.30;92.60
796;DHT22;381;48.770;9.188;2022-09-01T15:25:55;23.20;91.30
796;DHT22;381;48.770;9.188;2022-09-01T15:30:59;23.10;92.10
796;DHT22;381;48.770;9.188;2022-09-01T15:36:02;23.00;92.40
796;DHT22;381;48.770;9.188;2022-09-01T15:41:04;23.00;92.80
796;DHT22;381;48.770;9.188;2022-09-01T15:46:07;23.00;93.00
796;DHT22;381;48.770;9.188;2022-09-01T15:51:27;23.00;93.50
796;DHT22;381;48.770;9.188;2022-09-01T15:56:31;23.10;91.60
796;DHT22;381;48.770;9.188;2022-09-01T16:01:36;23.10;92.10
796;DHT22;381;48.770;9.188;2022-09-01T16:06:39;23.00;94.30
796;DHT22;381;48.770;9.188;2022-09-01T16:11:41;23.00;91.40
796;DHT22;381;48.770;9.188;2022-09-01T16:16:50;23.00;93.70
796;DHT22;381;48.770;9.188;2022-09-01T16:22:02;22.90;92.90
796;DHT22;381;48.770;9.188;2022-09-01T16:27:08;22.90;94.10
796;DHT22;381;48.770;9.188;2022-09-01T16:32:13;22.80;92.50
796;DHT22;381;48.770;9.188;2022-09-01T16:37:25;22.80;92.20
796;DHT22;381;48.770;9.188;2022-09-01T16:42:37;22.80;93.20
796;DHT22;381;48.770;9.188;2022-09-01T16:47:53;22.70;93.50
796;DHT22;381;48.770;9.188;2022-09-01T16:53:11;22.70;94.20
796;DHT22;381;48.770;9.188;2022-09-01T16:58:22;22.70;94.50
796;DHT22;381;48.770;9.188;2022-09-01T17:03:33;22.80;93.20
796;DHT22;381;48.770;9.188;2022-09-01T17:08:45;22.70;93.60
796;DHT22;381;48.770;9.188;2022-09-01T17:13:52;22.60;92.50
796;DHT22;381;48.770;9.188;2022-09-01T17:18:59;22.60;92.80
796;DHT22;381;48.770;9.188;2022-09-01T17:24:07;22.50;93.50
796;DHT22;381;48.770;9.188;2022-09-01T17:29:15;22.50;92.80
796;DHT22;381;48.770;9.188;2022-09-01T17:34:32;22.40;92.40
796;DHT22;381;48.770;9.188;2022-09-01T17:39:45;22.30;93.30
796;DHT22;381;48.770;9.188;2022-09-01T17:44:51;22.30;93.00
796;DHT22;381;48.770;9.188;2022-09-01T17:50:05;22.20;93.10
796;DHT22;381;48.770;9.188;2022-09-01T17:55:17;22.10;95.00
796;DHT22;381;48.770;9.188;2022-09-01T18:00:24;22.00;94.90
796;DHT22;381;48.770;9.188;2022-09-01T18:05:35;21.90;95.00
796;DHT22;381;48.770;9.188;2022-09-01T18:10:43;21.80;95.20
796;DHT22;381;48.770;9.188;2022-09-01T18:15:49;21.70;95.20
796;DHT22;381;48.770;9.188;2022-09-01T18:20:57;21.60;96.00
796;DHT22;381;48.770;9.188;2022-09-01T18:26:07;21.50;96.00
796;DHT22;381;48.770;9.188;2022-09-01T18:31:19;21.40;97.20
796;DHT22;381;48.770;9.188;2022-09-01T18:36:32;21.30;97.20
796;DHT22;381;48.770;9.188;2022-09-01T18:41:52;21.20;96.20
796;DHT22;381;48.770;9.188;2022-09-01T18:47:00;21.10;98.00
796;DHT22;381;48.770;9.188;2022-09-01T18:52:17;21.00;99.20
796;DHT22;381;48.770;9.188;2022-09-01T18:57:33;21.00;99.20
796;DHT22;381;48.770;9.188;2022-09-01T19:02:55;20.90;97.00
796;DHT22;381;48.770;9.188;2022-09-01T19:08:08;20.80;96.50
796;DHT22;381;48.770;9.188;2022-09-01T19:13:19;20.70;96.90
796;DHT22;381;48.770;9.188;2022-09-01T19:18:31;20.60;97.50
796;DHT22;381;48.770;9.188;2022-09-01T19:23:45;20.50;96.60
796;DHT22;381;48.770;9.188;2022-09-01T19:28:52;20.40;96.30
796;DHT22;381;48.770;9.188;2022-09-01T19:33:57;20.30;96.40
796;DHT22;381;48.770;9.188;2022-09-01T19:39:03;20.20;96.30
796;DHT22;381;48.770;9.188;2022-09-01T19:44:12;20.10;97.10
796;DHT22;381;48.770;9.188;2022-09-01T19:49:22;20.10;97.60
796;DHT22;381;48.770;9.188;2022-09-01T19:54:36;20.00;96.80
796;DHT22;381;48.770;9.188;2022-09-01T19:59:49;19.90;98.00
796;DHT22;381;48.770;9.188;2022-09-01T20:04:59;19.90;97.50
796;DHT22;381;48.770;9.188;2022-09-01T20:10:16;19.80;97.70
796;DHT22;381;48.770;9.188;2022-09-01T20:15:24;19.80;98.30
796;DHT22;381;48.770;9.188;2022-09-01T20:20:36;19.80;98.00
796;DHT22;381;48.770;9.188;2022-09-01T20:25:44;19.70;98.50
796;DHT22;381;48.770;9.188;2022-09-01T20:30:50;19.70;98.40
796;DHT22;381;48.770;9.188;2022-09-01T20:35:57;19.70;99.30
796;DHT22;381;48.770;9.188;2022-09-01T20:41:05;19.70;97.90
796;DHT22;381;48.770;9.188;2022-09-01T20:46:08;19.60;98.70
796;DHT22;381;48.770;9.188;2022-09-01T20:51:13;19.60;98.00
796;DHT22;381;48.770;9.188;2022-09-01T20:56:26;19.60;98.80
796;DHT22;381;48.770;9.188;2022-09-01T21:01:36;19.50;97.60
796;DHT22;381;48.770;9.188;2022-09-01T21:06:47;19.50;98.50
796;DHT22;381;48.770;9.188;2022-09-01T21:11:57;19.40;97.20
796;DHT22;381;48.770;9.188;2022-09-01T21:17:07;19.40;97.20
796;DHT22;381;48.770;9.188;2022-09-01T21:22:12;19.30;97.00
796;DHT22;381;48.770;9.188;2022-09-01T21:27:19;19.20;97.30
796;DHT22;381;48.770;9.188;2022-09-01T21:32:22;19.20;97.90
796;DHT22;381;48.770;9.188;2022-09-01T21:37:26;19.10;98.00
796;DHT22;381;48.770;9.188;2022-09-01T21:42:33;19.10;97.40
796;DHT22;381;48.770;9.188;2022-09-01T21:47:35;19.00;98.20
796;DHT22;381;48.770;9.188;2022-09-01T21:52:38;19.00;97.40
796;DHT22;381;48.770;9.188;2022-09-01T21:57:41;19.00;98.30
796;DHT22;381;48.770;9.188;2022-09-01T22:02:45;18.90;98.40
796;DHT22;381;48.770;9.188;2022-09-01T22:07:48;18.90;97.70
796;DHT22;381;48.770;9.188;2022-09-01T22:12:52;18.90;98.40
796;DHT22;381;48.770;9.188;2022-09-01T22:17:55;18.80;98.00
796;DHT22;381;48.770;9.188;2022-09-01T22:22:58;18.80;98.30
796;DHT22;381;48.770;9.188;2022-09-01T22:28:04;18.70;98.60
796;DHT22;381;48.770;9.188;2022-09-01T22:33:06;18.70;99.00
796;DHT22;381;48.770;9.188;2022-09-01T22:38:09;18.60;97.90
796;DHT22;381;48.770;9.188;2022-09-01T22:43:13;18.60;99.00
796;DHT22;381;48.770;9.188;2022-09-01T22:48:18;18.50;98.70
796;DHT22;381;48.770;9.188;2022-09-01T22:53:21;18.50;98.00
796;DHT22;381;48.770;9.188;2022-09-01T22:58:25;18.40;98.30
796;DHT22;381;48.770;9.188;2022-09-01T23:03:27;18.30;98.40
796;DHT22;381;48.770;9.188;2022-09-01T23:08:29;18.30;99.50
796;DHT22;381;48.770;9.188;2022-09-01T23:13:34;18.20;98.70
796;DHT22;381;48.770;9.188;2022-09-01T23:18:37;18.20;98.30
796;DHT22;381;48.770;9.188;2022-09-01T23:23:40;18.20;99.90
796;DHT22;381;48.770;9.188;2022-09-01T23:28:44;18.20;99.60
796;DHT22;381;48.770;9.188;2022-09-01T23:33:47;18.20;99.90
796;DHT22;381;48.770;9.188;2022-09-01T23:38:50;18.10;99.10
796;DHT22;381;48.770;9.188;2022-09-01T23:43:53;18.10;99.60
796;DHT22;381;48.770;9.188;2022-09-01T23:48:56;18.10;99.90
796;DHT22;381;48.770;9.188;2022-09-01T23:53:58;18.00;99.20
796;DHT22;381;48.770;9.188;2022-09-01T23:59:02;18.00;99.90
